Date,TemperatureHighF,TemperatureAvgF,TemperatureLowF,DewpointHighF,DewpointAvgF,DewpointLowF,HumidityHigh,HumidityAvg,HumidityLow,PressureMaxIn,PressureMinIn,WindSpeedMaxMPH,WindSpeedAvgMPH,GustSpeedMaxMPH,PrecipitationSumIn
2013-1-1,39.2,35.2,26.5,32.0,26.0,16.8,79,69,61,29.94,29.77,22,6,22,0.04
2013-1-2,33.3,26.4,20.4,20.9,16.3,10.8,77,65,58,30.11,29.92,21,4,21,0.01
2013-1-3,28.4,21.1,12.2,19.7,9.1,1.3,74,60,43,30.17,30.03,23,4,23,0.00
2013-1-4,39.7,33.8,26.9,30.6,26.2,19.4,83,74,61,30.04,29.87,33,7,34,0.01
2013-1-5,45.7,37.0,31.6,29.9,27.0,24.6,77,68,49,30.28,29.91,22,4,22,0.00
2013-1-6,43.1,36.7,31.9,37.9,31.4,24.2,86,81,64,30.25,29.96,23,4,23,0.04
2013-1-7,43.0,36.8,34.0,34.5,31.6,29.1,87,82,60,30.43,29.99,18,3,18,0.00
2013-1-8,46.1,41.8,35.2,39.5,36.8,30.6,87,82,73,30.42,30.32,38,10,38,0.00
2013-1-9,47.2,40.4,32.3,42.3,33.0,22.2,85,75,58,30.41,30.04,28,4,28,0.01
2013-1-10,48.8,43.3,36.1,38.7,30.8,27.7,76,62,47,30.54,30.11,28,4,28,0.00
2013-1-11,41.3,37.2,32.3,36.0,31.5,27.3,86,80,61,30.53,30.22,11,2,11,0.23
2013-1-12,45.6,43.2,40.6,28.5,26.7,24.9,61,52,48,30.24,30.12,11,2,11,0.08
2013-1-13,48.2,45.7,43.0,27.9,26.2,24.5,49,46,44,30.19,30.05,12,3,12,0.05
2013-1-14,56.9,48.3,42.8,45.1,30.4,24.6,83,51,42,30.27,29.97,22,6,22,0.02
2013-1-15,42.7,40.1,38.4,37.7,32.2,22.7,88,74,51,30.31,30.21,11,1,13,0.21
2013-1-16,42.1,38.1,36.0,34.4,24.2,21.3,84,58,50,30.25,29.76,15,2,15,0.64
2013-1-17,45.6,39.3,34.4,35.8,30.7,22.3,86,71,52,30.09,29.88,18,3,18,0.00
2013-1-18,34.4,27.1,24.9,29.2,13.1,5.3,92,57,38,30.51,30.03,22,7,31,0.00
2013-1-19,46.1,41.6,26.4,41.1,35.7,16.2,86,79,64,30.45,29.96,40,15,40,0.00
2013-1-20,50.9,44.5,32.5,43.0,36.3,17.3,86,73,46,29.96,29.63,34,12,34,0.00
2013-1-21,32.5,29.0,25.8,24.6,17.6,12.4,87,63,48,30.14,29.78,18,3,18,0.00
2013-1-22,27.5,24.2,17.7,21.8,13.2,4.9,88,64,44,30.10,29.75,24,5,24,0.04
2013-1-23,19.1,15.5,11.7,7.9,2.8,-2.7,70,57,48,30.19,30.08,27,8,27,0.00
2013-1-24,22.4,15.3,8.7,4.1,0.6,-2.3,64,52,40,30.25,30.07,31,7,31,0.00
2013-1-25,26.2,20.0,13.2,17.5,5.0,-0.9,87,52,38,30.34,30.06,21,3,23,0.00
2013-1-26,29.0,21.3,15.7,17.4,11.6,1.5,88,68,41,30.26,30.00,30,7,30,0.00
2013-1-27,33.2,23.7,16.9,12.9,9.3,5.3,67,54,38,30.49,30.25,20,6,27,0.00
2013-1-28,34.0,28.2,21.7,27.8,17.3,8.6,86,64,41,30.49,30.01,11,1,11,0.00
2013-1-29,37.4,34.4,32.3,26.6,22.2,19.5,68,61,57,30.22,30.00,9,1,9,0.22
2013-1-30,52.1,46.7,36.1,36.0,29.2,22.9,59,51,44,30.18,29.56,34,11,34,0.06
2013-1-31,54.4,47.0,34.5,42.9,30.6,18.2,83,54,42,29.65,29.09,47,15,47,0.56
2013-2-1,34.4,31.4,25.6,21.6,16.7,11.3,65,54,44,30.12,29.65,32,7,32,0.00
2013-2-2,33.2,28.1,23.0,27.1,17.4,10.3,85,64,49,30.29,30.07,30,7,30,0.00
2013-2-3,34.6,28.5,24.0,26.9,23.7,20.0,85,82,71,30.08,29.72,22,4,22,0.00
2013-2-4,33.2,28.8,26.2,24.6,17.7,13.5,92,64,47,29.99,29.73,22,4,22,0.00
2013-2-5,29.6,26.8,25.1,24.8,19.8,13.7,86,75,56,30.05,29.93,12,3,12,0.00
2013-2-6,42.2,33.2,29.1,33.4,22.5,11.9,86,65,47,30.31,29.92,20,3,20,0.03
2013-2-7,32.1,27.9,23.8,23.8,13.9,9.1,83,56,40,30.55,30.31,17,5,17,0.00
2013-2-8,34.5,33.3,28.4,30.6,26.4,21.6,86,76,59,30.49,29.60,37,10,37,0.11
2013-2-9,33.0,22.4,17.4,20.7,16.5,11.4,88,78,57,30.18,29.34,26,14,53,0.01
2013-2-10,34.2,27.7,15.5,27.6,23.1,10.3,87,83,66,30.41,30.19,8,3,26,0.27
2013-2-11,45.5,37.4,27.0,34.2,27.6,22.7,88,69,49,30.39,29.64,31,6,31,0.59
2013-2-12,46.9,41.2,34.4,35.9,31.8,19.5,85,70,49,29.92,29.64,20,4,20,0.00
2013-2-13,41.0,35.6,30.3,32.8,29.7,26.1,85,79,61,29.91,29.67,16,3,16,0.00
2013-2-14,44.4,36.3,30.7,33.1,28.4,20.2,86,74,50,30.04,29.70,17,3,17,0.09
2013-2-15,44.3,39.5,35.2,40.4,33.3,28.0,89,79,64,30.07,29.96,19,6,19,0.00
2013-2-16,42.1,35.9,33.5,34.5,27.8,23.0,86,73,60,29.97,29.65,22,5,22,0.13
2013-2-17,33.7,25.6,20.2,29.4,18.7,9.4,88,75,53,29.70,29.36,41,12,41,0.00
2013-2-18,33.2,25.9,18.5,14.2,10.9,7.8,67,53,37,30.20,29.70,34,7,34,0.00
2013-2-19,46.3,39.4,28.7,41.0,31.3,13.8,86,73,53,30.20,29.61,34,6,34,0.80
2013-2-20,42.9,35.3,28.7,32.6,22.8,16.1,86,61,50,29.83,29.58,25,6,25,0.01
2013-2-21,35.9,30.8,27.5,21.7,19.7,18.1,72,63,51,30.15,29.80,29,8,29,0.00
2013-2-22,38.4,33.9,29.7,30.7,27.2,21.5,85,76,67,30.38,30.15,28,6,28,0.00
2013-2-23,38.9,36.1,33.5,34.7,30.6,26.0,87,81,61,30.34,29.85,14,3,14,0.36
2013-2-24,43.9,39.3,33.0,27.9,25.4,22.5,68,58,49,29.88,29.61,22,8,22,0.75
2013-2-25,43.2,35.8,30.9,35.3,29.5,22.5,92,78,65,30.27,29.88,16,4,16,0.04
2013-2-26,43.3,37.8,33.9,35.6,31.8,27.2,87,79,63,30.35,30.13,16,2,16,0.00
2013-2-27,44.3,42.3,38.8,36.1,29.8,24.9,86,61,53,30.13,29.58,38,10,38,0.96
2013-2-28,44.1,40.3,37.7,38.4,27.7,21.4,83,61,49,29.66,29.52,13,1,13,0.01
2013-3-1,44.0,40.3,37.3,36.9,32.5,27.4,87,74,63,29.69,29.52,22,4,22,0.00
2013-3-2,44.6,39.3,35.8,35.2,32.6,30.5,85,77,61,29.70,29.63,16,3,16,0.00
2013-3-3,40.7,37.4,34.4,34.1,31.8,29.8,92,80,69,29.65,29.58,18,4,18,0.00
2013-3-4,43.8,37.2,31.6,30.9,28.5,26.1,87,71,57,29.73,29.59,25,7,25,0.00
2013-3-5,45.4,38.3,33.6,37.0,31.5,27.0,87,76,66,30.07,29.73,22,6,22,0.00
2013-3-6,41.4,38.8,34.4,37.5,33.7,26.8,92,82,71,30.06,29.91,42,12,42,0.02
2013-3-7,38.5,35.7,34.4,35.0,28.2,24.9,87,74,67,29.93,29.86,42,16,42,1.72
2013-3-8,40.7,35.7,34.0,35.9,26.4,23.4,87,69,64,30.07,29.85,37,12,37,1.22
2013-3-9,41.4,37.8,31.9,36.2,32.8,25.0,87,82,74,30.34,30.06,32,9,36,0.02
2013-3-10,43.4,37.8,31.9,37.6,32.6,24.2,87,82,70,30.41,30.32,18,4,18,0.01
2013-3-11,46.5,41.7,36.7,42.5,37.3,32.7,89,84,74,30.36,30.19,16,5,16,0.00
2013-3-12,52.9,48.9,43.3,47.6,39.9,34.8,83,71,57,30.19,29.82,28,10,28,0.16
2013-3-13,54.7,46.9,39.3,41.1,34.0,25.6,85,62,46,29.81,29.71,20,4,20,0.01
2013-3-14,39.2,34.8,27.5,32.9,24.3,12.6,81,66,51,29.86,29.74,31,5,31,0.00
2013-3-15,39.8,32.7,24.6,32.3,21.3,14.1,79,63,39,29.90,29.69,31,7,32,0.00
2013-3-16,40.2,36.7,32.6,32.2,25.4,16.4,84,65,41,29.89,29.71,20,5,20,0.00
2013-3-17,41.7,35.8,29.8,31.0,21.3,12.7,82,57,34,30.31,29.88,18,4,18,0.00
2013-3-18,36.3,31.3,24.0,29.8,19.2,9.1,81,61,48,30.47,30.24,20,4,20,0.00
2013-3-19,43.2,37.6,32.4,29.8,25.1,20.5,86,61,51,30.25,29.52,28,9,28,1.13
2013-3-20,43.6,37.0,31.9,34.0,28.0,24.1,86,71,48,29.84,29.68,29,6,29,0.00
2013-3-21,39.8,34.8,30.8,34.9,28.0,20.7,86,76,64,29.85,29.60,16,4,18,0.00
2013-3-22,41.7,35.6,29.3,29.4,25.6,19.8,87,68,51,29.78,29.61,19,4,19,0.17
2013-3-23,45.6,38.8,33.1,29.5,26.5,23.9,81,62,44,29.81,29.67,29,6,36,0.00
2013-3-24,47.9,40.0,34.4,35.3,29.5,25.2,85,67,45,29.85,29.75,17,3,17,0.00
2013-3-25,45.1,39.5,34.8,37.8,33.8,30.8,86,80,63,29.78,29.47,26,8,32,0.01
2013-3-26,50.4,41.3,35.1,36.7,32.7,28.0,86,72,47,29.80,29.47,24,6,24,0.02
2013-3-27,53.9,44.4,35.1,38.4,31.0,25.9,82,60,39,29.87,29.75,21,4,21,0.00
2013-3-28,48.7,43.0,38.6,39.7,35.7,30.7,86,76,53,30.04,29.85,19,5,19,0.00
2013-3-29,55.4,45.7,39.3,41.5,38.3,34.9,86,76,54,30.06,30.01,22,4,22,0.00
2013-3-30,52.2,45.9,38.9,40.6,37.6,34.5,87,73,52,30.12,30.03,21,5,21,0.00
2013-3-31,49.1,44.1,36.6,43.4,39.0,30.4,92,82,68,30.15,29.75,23,4,23,0.17
2013-4-1,51.9,46.2,39.1,46.3,36.2,21.2,85,69,47,29.83,29.59,26,9,27,0.22
2013-4-2,44.2,38.2,33.5,27.8,21.5,17.1,64,51,37,30.00,29.82,30,6,30,0.00
2013-4-3,47.7,39.6,33.8,24.3,21.4,19.8,61,48,35,30.18,29.98,34,6,34,0.00
2013-4-4,43.9,39.1,33.0,36.7,28.4,20.7,84,66,43,30.34,30.12,30,9,30,0.00
2013-4-5,51.7,44.4,41.3,45.8,37.7,30.3,84,78,52,30.12,29.67,26,7,26,0.02
2013-4-6,50.1,41.8,36.6,33.9,24.8,12.4,83,53,23,30.36,29.87,27,8,27,0.00
2013-4-7,48.8,43.8,36.4,41.8,37.8,31.6,85,79,62,30.37,30.07,26,8,26,0.00
2013-4-8,56.0,48.5,44.3,47.2,40.4,30.0,84,74,55,30.14,30.00,22,6,25,0.00
2013-4-9,75.1,51.2,46.5,51.4,41.4,29.5,84,71,42,30.14,29.88,24,7,24,0.06
2013-4-10,58.2,49.8,45.7,50.7,41.3,31.1,82,73,55,30.07,29.87,21,4,21,0.43
2013-4-11,50.2,47.7,45.6,44.0,36.3,28.4,85,66,47,30.14,29.82,19,4,19,0.05
2013-4-12,45.7,43.3,40.0,39.2,32.7,25.3,82,67,51,30.17,29.71,31,10,31,0.94
2013-4-13,49.1,43.7,40.0,42.9,34.7,25.2,83,71,51,29.97,29.70,30,6,30,0.04
2013-4-14,56.1,49.0,44.2,45.4,38.7,31.9,83,69,45,30.23,29.95,22,5,22,0.00
2013-4-15,53.3,46.1,40.0,44.9,38.7,32.5,83,75,59,30.44,30.22,15,4,15,0.00
2013-4-16,53.6,49.0,43.0,47.8,41.9,32.3,83,76,62,30.44,30.16,27,8,27,0.01
2013-4-17,63.2,53.1,46.0,50.9,41.3,30.9,80,65,46,30.35,30.11,23,5,23,0.01
2013-4-18,57.6,50.5,43.6,47.0,41.4,31.9,83,71,57,30.44,30.19,17,4,17,0.00
2013-4-19,60.7,55.6,52.5,43.9,34.7,31.2,72,45,40,30.19,29.76,40,13,40,0.01
2013-4-20,59.0,52.3,48.6,46.6,37.2,26.6,78,59,41,30.21,29.70,39,10,39,0.43
2013-4-21,51.1,45.1,37.7,37.3,30.6,26.2,75,57,42,30.69,30.21,22,4,22,0.00
2013-4-22,51.9,44.9,38.9,41.1,36.0,30.2,83,72,50,30.74,30.56,22,7,22,0.00
2013-4-23,46.7,44.9,42.5,38.0,30.8,24.2,80,58,46,30.57,30.01,33,10,33,0.20
2013-4-24,55.3,48.7,44.8,49.8,38.4,29.1,83,68,47,30.01,29.87,33,12,33,0.01
2013-4-25,58.4,51.8,48.3,47.4,39.3,29.0,80,64,43,30.26,29.92,22,6,22,0.02
2013-4-26,48.2,46.7,44.5,41.4,38.4,35.2,80,73,63,30.33,30.26,8,1,8,0.00
2013-4-27,57.0,51.9,45.5,47.0,41.8,29.5,81,69,50,30.44,30.35,15,4,15,0.00
2013-4-28,56.9,51.6,45.5,50.8,44.5,34.1,81,77,62,30.38,30.29,17,4,17,0.00
2013-4-29,58.4,53.4,48.7,50.0,44.4,40.2,82,72,54,30.32,30.26,14,3,14,0.00
2013-4-30,62.0,53.5,46.6,46.3,40.2,32.3,83,63,35,30.38,30.27,15,2,15,0.00
2013-5-1,62.0,52.9,45.6,52.5,46.1,38.9,82,78,65,30.50,30.38,17,3,17,0.00
2013-5-2,65.2,54.4,47.2,52.5,44.2,31.1,80,69,48,30.49,30.38,20,4,20,0.00
2013-5-3,53.7,49.1,44.5,47.4,41.7,32.7,81,76,62,30.50,30.37,25,6,25,0.00
2013-5-4,54.7,49.2,44.7,45.4,40.8,33.3,82,73,62,30.37,30.31,25,7,25,0.00
2013-5-5,57.6,49.9,43.0,48.7,41.0,29.7,81,71,56,30.32,30.27,18,5,18,0.00
2013-5-6,61.7,51.5,45.8,53.9,40.6,29.6,81,67,46,30.31,30.19,10,1,10,0.00
2013-5-7,66.3,57.1,47.5,57.4,39.9,27.2,74,53,40,30.22,30.16,12,2,12,0.00
2013-5-8,65.2,60.0,57.1,52.9,39.1,33.8,66,46,38,30.21,30.06,15,4,15,0.37
2013-5-9,64.7,58.3,53.7,42.7,34.9,31.5,49,41,39,30.06,29.90,15,2,15,0.52
2013-5-10,63.8,58.6,55.4,54.9,39.4,32.6,73,50,39,30.00,29.91,18,6,18,0.01
2013-5-11,62.1,58.4,55.7,43.8,36.4,33.0,56,44,40,29.98,29.75,31,9,31,1.56
2013-5-12,61.1,57.8,54.0,53.4,39.4,32.4,77,52,39,29.84,29.63,26,7,26,0.11
2013-5-13,55.2,52.9,49.1,44.1,39.8,34.1,70,61,50,30.03,29.84,35,9,35,0.00
2013-5-14,56.4,51.1,44.0,46.1,39.2,34.2,78,64,47,30.07,30.00,21,6,27,0.00
2013-5-15,59.0,54.1,47.9,51.5,45.3,35.7,79,72,47,30.09,29.74,32,8,32,0.01
2013-5-16,69.0,60.4,53.9,57.0,49.6,30.9,79,69,41,29.81,29.68,26,9,26,0.00
2013-5-17,66.5,59.3,53.4,52.8,49.1,44.8,80,70,49,30.24,29.80,18,4,18,0.00
2013-5-18,61.1,57.3,51.5,54.1,47.8,37.2,78,71,55,30.34,30.23,19,5,19,0.00
2013-5-19,62.7,58.1,55.3,56.2,48.3,34.5,81,71,43,30.39,30.26,18,5,18,0.15
2013-5-20,64.3,60.1,56.9,41.6,36.7,34.2,48,42,38,30.26,29.96,27,8,27,0.20
2013-5-21,62.9,59.6,55.3,42.8,37.2,33.9,54,43,39,29.99,29.89,19,5,19,0.03
2013-5-22,64.1,58.1,53.7,53.9,38.9,32.3,70,49,42,30.00,29.92,18,5,18,0.01
2013-5-23,65.2,61.5,59.2,41.8,37.7,35.9,44,41,39,29.98,29.88,28,10,28,0.09
2013-5-24,64.7,60.6,55.0,39.8,36.7,32.3,42,41,40,29.88,29.70,33,7,33,1.27
2013-5-25,54.9,51.5,44.5,45.3,35.0,29.5,78,54,42,29.78,29.69,22,5,22,0.17
2013-5-26,60.9,52.0,44.6,47.8,43.5,37.9,84,73,57,30.13,29.76,27,5,27,0.00
2013-5-27,70.3,58.1,49.8,54.3,48.3,41.3,82,71,36,30.18,30.10,26,6,26,0.00
2013-5-28,66.9,58.9,50.8,57.8,50.0,34.7,82,73,50,30.26,30.18,14,3,14,0.00
2013-5-29,62.2,59.7,58.4,49.6,38.1,35.0,64,45,40,30.24,30.04,24,8,24,0.66
2013-5-30,68.0,63.2,59.4,59.5,45.9,35.3,76,54,40,30.12,30.04,20,7,20,0.21
2013-5-31,70.3,65.7,61.3,62.9,52.8,39.4,78,64,44,30.12,30.00,19,6,19,0.00
2013-6-1,67.9,64.0,61.1,59.2,47.3,38.0,74,55,40,30.03,29.96,22,10,22,0.00
2013-6-2,66.9,64.1,62.7,56.0,43.2,38.0,69,47,39,29.98,29.86,25,10,25,0.01
2013-6-3,66.0,63.2,61.7,40.9,38.6,37.2,41,40,40,29.89,29.82,26,9,26,3.15
2013-6-4,75.3,64.9,55.1,54.7,48.3,32.0,76,56,39,30.08,29.82,18,2,18,0.00
2013-6-5,68.4,62.1,54.3,56.7,50.3,37.0,77,66,43,30.21,30.08,17,4,18,0.00
2013-6-6,70.8,63.6,58.1,60.8,53.3,40.9,76,69,52,30.23,30.10,16,3,16,0.00
2013-6-7,67.8,60.7,59.0,53.3,38.0,34.3,75,44,38,30.11,29.74,27,6,27,2.69
2013-6-8,71.7,65.3,59.6,62.3,42.9,35.3,73,45,37,30.02,29.55,31,9,31,0.34
2013-6-9,77.3,67.7,60.3,63.8,54.0,35.9,78,63,38,30.18,30.01,23,4,23,0.01
2013-6-10,69.3,64.8,60.9,62.2,50.8,36.9,78,61,40,30.21,29.99,18,2,18,0.85
2013-6-11,67.3,64.3,58.2,43.8,39.2,34.6,44,39,37,29.99,29.56,25,7,25,1.77
2013-6-12,72.5,64.7,57.4,61.0,53.0,33.9,79,67,40,29.82,29.58,28,4,28,0.00
2013-6-13,66.3,60.9,56.8,59.0,51.5,37.3,78,71,49,29.85,29.59,26,3,26,0.23
2013-6-14,67.0,59.7,54.5,57.6,45.5,32.5,79,61,42,29.77,29.55,33,9,33,0.75
2013-6-15,80.4,68.2,60.7,62.0,56.2,47.8,78,68,35,29.97,29.77,21,5,21,0.00
2013-6-16,70.2,65.0,61.6,61.8,49.1,37.1,77,58,39,29.97,29.78,25,5,25,0.00
2013-6-17,71.6,67.4,62.6,62.5,51.0,38.7,77,57,39,29.95,29.81,25,4,25,0.05
2013-6-18,78.7,66.9,61.1,68.7,47.8,36.6,76,52,37,29.95,29.87,19,2,19,0.04
2013-6-19,73.8,65.4,58.7,59.6,50.9,34.6,78,61,39,30.17,29.86,19,5,19,0.01
2013-6-20,69.5,65.5,61.1,61.7,56.3,45.8,77,72,56,30.30,30.17,22,7,22,0.00
2013-6-21,69.7,66.6,63.4,62.0,58.3,51.4,77,75,65,30.31,30.24,25,10,25,0.00
2013-6-22,72.0,67.2,64.2,64.4,54.1,39.5,77,64,38,30.27,30.18,22,8,22,0.00
2013-6-23,71.8,69.1,65.6,60.0,48.4,39.1,67,49,37,30.21,30.09,24,10,24,0.00
2013-6-24,78.0,72.3,67.6,67.6,49.9,41.1,71,46,33,30.09,29.91,22,8,22,0.00
2013-6-25,78.0,72.7,69.8,68.6,55.0,44.0,73,55,38,29.95,29.78,23,6,23,0.00
2013-6-26,79.7,74.4,70.7,70.0,55.8,43.2,73,54,36,29.86,29.75,22,4,22,0.00
2013-6-27,73.5,70.2,67.7,53.1,43.7,41.2,50,38,35,29.86,29.76,13,2,13,0.02
2013-6-28,71.6,69.8,68.6,44.7,43.1,42.1,39,38,38,29.76,29.57,27,9,27,1.10
2013-6-29,72.6,70.1,68.9,45.0,43.5,42.4,39,38,35,29.78,29.55,23,9,29,1.16
2013-6-30,72.0,70.4,69.0,50.8,44.3,42.3,48,39,36,29.98,29.77,19,6,19,0.02
2013-7-1,73.8,71.0,69.4,46.2,44.0,42.7,38,38,35,30.13,29.98,21,8,21,0.51
2013-7-2,75.1,72.1,70.1,52.3,45.9,43.3,47,39,36,30.24,30.13,21,7,21,0.03
2013-7-3,75.2,72.8,70.7,54.4,47.3,43.9,50,40,36,30.26,30.20,25,10,25,0.00
2013-7-4,76.5,73.3,70.7,59.1,47.8,43.9,56,41,35,30.25,30.15,25,10,25,0.00
2013-7-5,78.4,74.8,72.3,65.6,53.6,44.6,66,49,37,30.20,30.09,23,8,23,0.00
2013-7-6,81.2,75.6,0.0,71.2,57.0,0.0,72,53,37,30.11,29.99,22,7,23,0.00
2013-7-7,82.2,77.4,73.5,70.4,57.2,45.7,70,51,36,30.04,29.93,19,5,19,0.00
2013-7-8,78.7,75.0,71.1,66.6,54.4,45.0,67,50,35,30.06,29.94,23,7,23,0.00
2013-7-9,75.9,72.7,69.7,58.6,46.7,42.3,56,40,35,30.11,30.03,10,1,10,0.12
2013-7-10,79.5,75.6,73.4,58.0,47.8,45.6,48,37,34,30.08,29.84,25,6,25,0.06
2013-7-11,75.3,74.0,71.7,50.8,46.5,44.7,43,38,36,29.92,29.82,25,6,25,0.12
2013-7-12,73.0,70.6,67.9,58.7,49.4,42.5,67,48,36,30.18,29.91,20,6,20,0.00
2013-7-13,76.7,72.3,68.9,59.9,46.0,42.2,57,39,36,30.32,30.18,14,2,14,0.18
2013-7-14,80.0,76.5,72.9,60.4,50.1,45.1,56,40,33,30.32,30.20,19,3,19,0.22
2013-7-15,86.9,80.0,75.5,74.6,56.8,47.2,67,46,32,30.22,30.12,11,2,11,0.00
2013-7-16,90.1,81.2,74.0,77.6,64.4,46.2,73,58,35,30.18,30.10,9,1,9,0.00
2013-7-17,85.3,78.9,74.8,74.3,61.2,46.1,73,56,36,30.20,30.06,17,4,17,0.00
2013-7-18,89.0,81.7,76.6,78.4,62.9,47.4,72,55,35,30.06,29.97,21,4,21,0.00
2013-7-19,81.4,79.0,76.8,60.3,52.7,47.3,50,40,33,29.98,29.80,26,9,26,0.00
2013-7-20,80.4,77.5,75.0,63.7,52.7,46.5,62,43,34,29.82,29.70,25,9,26,0.00
2013-7-21,81.5,75.0,70.5,71.3,56.0,44.3,72,53,36,30.01,29.82,9,1,11,0.04
2013-7-22,79.8,74.5,70.2,69.7,54.4,44.1,73,51,36,30.02,29.89,15,2,15,0.00
2013-7-23,81.3,76.8,73.6,55.3,48.2,45.0,43,36,31,29.89,29.57,23,7,26,0.02
2013-7-24,84.1,77.7,73.9,74.1,59.1,45.1,73,54,35,29.92,29.59,19,4,19,0.00
2013-7-25,73.9,65.8,63.5,64.5,51.3,40.9,74,61,42,30.06,29.91,24,9,24,0.02
2013-7-26,70.6,67.4,64.6,46.2,41.1,38.5,51,38,35,30.04,29.90,22,6,22,0.30
2013-7-27,75.8,71.8,67.6,62.0,49.0,40.4,63,45,36,30.09,30.02,22,7,22,0.00
2013-7-28,78.0,73.9,71.2,57.3,46.3,42.8,50,38,33,30.04,29.96,17,2,17,0.06
2013-7-29,78.7,74.1,70.1,63.0,49.1,41.9,59,42,35,30.06,30.00,16,4,16,0.00
2013-7-30,82.5,74.4,66.8,70.1,59.7,42.3,73,61,36,30.11,30.04,22,3,22,0.00
2013-7-31,78.3,72.3,66.5,67.6,61.0,53.2,73,68,57,30.14,30.07,17,3,17,0.00
2013-8-1,78.7,72.2,65.3,68.9,55.8,41.5,72,57,40,30.08,29.91,19,4,19,0.14
2013-8-2,82.4,72.6,65.6,70.8,51.6,40.7,71,49,34,29.91,29.81,24,6,24,0.68
2013-8-3,75.1,72.2,70.0,63.4,54.4,43.9,70,54,36,29.91,29.82,23,8,23,0.00
2013-8-4,81.8,71.4,63.5,68.2,58.1,45.1,74,63,48,29.89,29.78,23,1,23,0.19
2013-8-5,78.0,68.7,61.4,59.2,54.2,50.1,74,61,40,30.05,29.89,17,2,17,0.00
2013-8-6,76.9,68.6,59.6,61.9,55.8,46.6,76,64,43,30.18,30.05,14,2,14,0.00
2013-8-7,76.7,69.7,63.8,65.1,53.2,37.2,73,57,35,30.20,30.15,17,2,17,0.00
2013-8-8,76.3,71.9,67.3,63.2,52.2,43.6,67,51,35,30.16,30.06,22,7,22,0.03
2013-8-9,74.5,73.8,72.9,45.8,44.6,43.5,37,35,34,30.09,29.81,32,10,32,0.56
2013-8-10,84.0,74.8,69.4,70.6,55.2,41.9,71,52,34,30.03,29.81,23,4,23,0.00
2013-8-11,76.0,69.4,62.3,63.5,56.6,41.0,72,64,45,30.10,30.01,25,4,25,0.00
2013-8-12,74.6,71.3,68.4,58.9,51.3,41.2,62,50,36,30.06,29.95,20,4,20,0.00
2013-8-13,71.2,69.5,67.0,48.0,42.4,39.2,46,37,34,29.95,29.70,13,1,13,0.12
2013-8-14,75.5,70.0,65.3,60.6,54.3,41.2,74,59,38,29.98,29.68,19,2,19,0.00
2013-8-15,74.7,67.5,60.1,60.5,56.2,50.3,74,68,43,30.14,29.97,23,5,23,0.00
2013-8-16,134.5,66.1,60.0,99.9,57.3,0.0,90,66,40,30.18,30.12,18,4,18,0.00
2013-8-28,158.0,66.2,66.6,99.9,66.9,65.5,98,97,79,30.17,29.90,11,1,16,0.00
2013-8-29,67.9,65.5,60.4,65.9,63.6,58.8,97,94,89,30.06,29.95,17,4,17,0.00
2013-8-30,73.0,66.7,60.0,68.4,63.8,58.9,97,90,81,30.03,29.87,22,5,22,0.00
2013-8-31,72.7,70.8,69.2,70.6,69.5,68.3,97,96,91,29.89,29.85,24,8,24,0.00
2013-9-1,74.3,71.6,70.5,72.3,70.8,69.7,99,97,93,29.92,29.85,18,5,18,0.16
2013-9-2,76.0,72.1,70.9,73.9,71.6,70.6,100,98,91,29.90,29.74,17,4,17,0.17
2013-9-3,74.0,70.3,66.1,72.9,70.0,65.8,100,99,92,29.84,29.71,16,4,16,3.54
2013-9-4,77.5,69.5,62.5,66.7,63.1,60.1,99,81,58,29.95,29.82,23,5,23,0.01
2013-9-5,72.8,66.3,58.6,66.2,61.7,54.6,94,85,75,30.13,29.89,17,3,17,0.00
2013-9-6,68.5,61.0,52.5,55.6,50.4,43.9,93,69,43,30.25,30.12,11,2,14,0.00
2013-9-7,71.0,65.8,59.3,60.2,56.0,50.2,80,71,50,30.13,29.90,27,8,27,0.00
2013-9-8,77.6,68.7,56.8,65.0,57.9,43.9,92,70,47,30.10,29.76,17,5,21,0.00
2013-9-9,65.9,60.6,52.0,56.1,49.8,44.5,82,68,49,30.26,30.10,20,4,20,0.00
2013-9-10,72.2,67.9,64.9,68.0,62.9,54.9,96,84,70,30.20,30.07,29,9,29,0.00
2013-9-11,74.8,70.9,68.3,71.0,69.0,67.7,99,94,86,30.12,30.01,20,8,20,0.00
2013-9-12,74.5,71.1,69.1,71.2,69.5,68.5,99,95,89,30.03,29.72,26,8,26,0.00
2013-9-13,75.3,70.2,63.0,70.4,67.6,59.0,99,92,82,29.75,29.59,18,4,20,0.04
2013-9-14,73.7,64.7,59.0,59.2,56.3,54.1,88,75,55,30.07,29.75,15,2,15,0.00
2013-9-15,67.8,61.1,53.9,58.0,54.3,51.0,91,79,63,30.19,30.07,20,4,20,0.00
2013-9-16,66.0,61.8,53.6,61.7,56.5,43.4,93,83,67,30.21,30.03,20,3,20,0.02
2013-9-17,58.7,53.0,46.7,48.9,42.7,38.0,90,69,47,30.41,30.21,24,5,24,0.00
2013-9-18,72.6,60.0,49.6,56.5,48.5,42.4,91,68,37,30.34,30.17,18,4,18,0.00
2013-9-19,71.2,63.4,56.6,60.8,56.9,53.1,92,80,63,30.17,30.06,20,4,20,0.00
2013-9-20,77.3,64.7,58.2,64.5,60.9,56.4,96,88,62,30.11,30.03,15,4,15,0.00
2013-9-21,74.8,68.2,62.3,67.3,64.2,60.8,97,87,72,30.06,29.78,20,6,20,0.01
2013-9-22,73.0,66.7,55.8,67.7,61.0,48.8,98,83,61,29.82,29.66,29,5,29,0.33
2013-9-23,65.8,56.1,48.3,49.3,46.0,42.7,86,70,48,30.01,29.82,18,3,18,0.00
2013-9-24,67.5,55.6,47.5,52.2,45.6,41.8,86,70,48,30.01,29.82,15,2,15,0.00
2013-9-25,64.3,57.5,51.3,52.3,49.6,46.6,93,76,60,29.99,29.89,15,2,15,0.00
2013-9-26,62.6,58.0,55.2,52.4,50.8,47.4,88,77,64,30.12,29.99,16,2,16,0.00
2013-9-27,64.8,59.0,54.8,55.8,53.3,51.2,90,82,69,30.27,30.11,17,3,20,0.00
2013-9-28,69.0,58.6,52.3,59.8,53.5,48.0,94,84,63,30.32,30.25,12,2,13,0.00
2013-9-29,65.8,57.5,50.6,57.9,53.3,49.5,98,87,65,30.27,30.10,13,2,13,0.01
2013-9-30,65.9,60.0,54.2,58.8,56.2,52.5,98,88,73,30.11,29.97,16,3,16,0.00
2013-10-1,73.3,62.0,52.2,62.2,56.1,49.2,96,82,52,29.98,29.86,13,2,13,0.00
2013-10-2,77.4,68.2,60.7,65.0,61.0,57.5,96,79,59,29.97,29.85,20,2,20,0.00
2013-10-3,74.0,65.9,59.8,62.2,58.2,54.0,87,77,54,30.10,29.97,14,2,14,0.00
2013-10-4,69.5,61.8,58.3,63.1,58.1,54.6,95,88,75,30.09,30.03,11,1,11,0.00
2013-10-5,66.6,62.4,59.5,62.0,59.7,57.5,97,91,78,30.13,30.06,10,1,10,0.11
2013-10-6,63.9,61.1,59.4,62.6,58.8,55.7,97,92,84,30.21,30.12,14,3,14,0.08
2013-10-7,73.5,68.9,63.9,69.9,67.4,62.7,99,95,88,30.12,29.86,28,9,28,0.16
2013-10-8,67.4,60.8,55.4,66.0,51.2,45.1,98,72,46,30.35,29.89,18,3,18,0.00
2013-10-9,60.7,56.5,52.2,50.8,48.5,46.5,89,75,64,30.43,30.34,24,6,24,0.00
2013-10-10,64.5,58.8,53.2,58.2,55.0,48.5,94,87,79,30.34,30.13,18,5,18,0.00
2013-10-11,65.5,60.4,54.2,60.5,57.1,51.3,96,89,78,30.14,30.08,21,6,21,0.00
2013-10-12,64.2,59.0,54.6,59.0,54.9,51.0,92,86,82,30.36,30.12,24,8,24,0.00
2013-10-13,60.0,56.0,51.0,51.8,49.0,46.1,92,78,67,30.43,30.33,22,6,22,0.00
2013-10-14,62.5,53.5,46.1,51.8,48.4,44.5,96,83,62,30.41,30.28,8,0,8,0.00
2013-10-15,64.5,57.0,50.2,54.5,52.0,48.5,97,84,59,30.28,30.17,10,2,10,0.00
2013-10-16,62.2,57.7,52.4,59.5,55.6,50.9,97,93,89,30.17,29.92,13,2,13,0.00
2013-10-17,68.3,61.6,57.3,63.6,60.0,56.5,98,94,84,29.93,29.76,22,5,22,0.00
2013-10-18,69.8,63.8,56.2,63.3,55.4,48.1,99,76,48,29.94,29.66,22,4,22,0.06
2013-10-19,64.5,57.9,51.6,56.5,48.4,44.0,92,71,57,30.01,29.78,15,2,15,0.01
2013-10-20,64.3,58.4,51.3,58.9,45.6,35.7,92,65,36,30.04,29.72,18,3,18,0.00
2013-10-21,64.6,56.6,46.4,51.0,45.4,40.7,87,67,42,30.14,30.03,26,5,26,0.00
2013-10-22,65.6,60.4,52.5,56.8,54.0,45.1,88,80,70,30.03,29.73,20,5,20,0.00
2013-10-23,52.4,48.8,45.4,45.1,40.0,37.2,89,72,59,29.82,29.59,15,1,15,0.07
2013-10-24,54.3,48.7,43.5,42.6,35.0,28.5,83,61,38,29.92,29.65,14,3,26,0.00
2013-10-25,52.6,46.1,41.5,36.8,33.3,30.0,77,62,45,30.19,29.91,18,2,18,0.00
2013-10-26,57.5,50.2,41.6,46.6,39.5,33.5,83,67,55,30.19,29.89,40,11,40,0.00
2013-10-27,59.1,52.2,46.3,45.1,37.3,33.1,81,57,42,30.09,29.84,25,2,25,0.00
2013-10-28,59.2,49.9,41.2,44.5,37.4,31.2,88,63,45,30.35,30.09,26,4,26,0.00
2013-10-29,52.7,45.1,39.3,39.4,34.2,29.0,81,66,41,30.43,30.35,14,3,14,0.00
2013-10-30,58.7,49.5,44.0,49.0,44.6,37.6,93,83,68,30.38,30.20,18,1,18,0.00
2013-10-31,62.7,57.0,47.0,60.8,54.6,45.7,97,92,82,30.26,29.87,24,6,24,0.03
2013-11-1,66.5,62.6,59.8,63.8,60.4,57.6,96,93,88,29.87,29.56,43,14,43,0.01
2013-11-2,61.4,57.9,55.2,58.3,54.3,49.5,96,88,69,29.73,29.60,13,1,14,0.02
2013-11-3,55.2,45.7,36.9,49.5,39.8,22.4,93,80,54,30.38,29.72,24,6,24,0.00
2013-11-4,43.7,38.2,33.7,32.0,27.8,24.6,78,66,51,30.72,30.38,25,6,25,0.00
2013-11-5,50.4,42.8,35.3,40.9,34.0,28.8,84,71,56,30.72,30.53,9,1,9,0.00
2013-11-6,57.3,52.2,43.0,55.1,47.5,39.0,96,84,69,30.54,30.10,21,4,21,0.00
2013-11-7,60.5,55.5,44.2,60.2,54.1,37.6,99,95,78,30.10,29.68,25,8,25,0.80
2013-11-8,50.2,43.1,38.6,37.8,32.1,24.8,82,66,48,30.13,29.83,25,3,25,0.00
2013-11-9,46.4,41.7,36.0,36.5,29.1,24.4,77,62,45,30.24,30.07,16,2,16,0.00
2013-11-10,56.9,51.2,45.0,46.8,42.2,36.4,77,71,62,30.07,29.74,27,7,27,0.00
2013-11-11,53.9,47.8,41.7,45.4,35.0,27.8,74,61,40,30.13,29.90,33,8,33,0.00
2013-11-12,54.1,42.1,30.9,45.4,34.2,19.3,95,74,60,30.19,29.90,28,7,33,0.13
2013-11-13,39.6,32.6,27.6,21.2,18.8,16.0,71,57,41,30.30,30.17,24,6,24,0.00
2013-11-14,49.7,44.0,33.6,35.9,29.2,20.6,72,56,34,30.23,30.08,23,8,23,0.00
2013-11-15,55.6,50.7,45.3,48.5,42.3,32.7,92,73,57,30.24,30.16,23,7,23,0.00
2013-11-16,55.6,50.0,44.7,48.2,43.3,32.7,100,79,48,30.34,30.22,16,3,16,0.00
2013-11-17,58.7,52.3,44.7,58.3,50.9,43.6,99,95,80,30.33,29.88,17,4,17,0.19
2013-11-18,60.4,56.3,51.3,60.1,52.8,38.1,99,89,59,29.88,29.59,37,10,37,0.32
2013-11-19,50.9,43.0,34.2,38.5,27.6,21.0,63,54,42,30.29,29.68,25,6,25,0.00
2013-11-20,40.8,35.0,29.7,25.2,19.3,13.8,67,53,34,30.62,30.29,20,5,20,0.00
2013-11-21,46.4,39.9,31.0,38.9,29.6,22.0,82,67,56,30.65,30.41,15,2,15,0.00
2013-11-22,48.1,10.1,0.0,43.4,9.1,0.0,85,18,82,30.41,29.85,8,0,8,0.00
2013-11-23,0.0,0.0,0.0,0.0,0.0,0.0,0,0,100,29.91,29.81,0,0,0,0.00
2013-11-24,0.0,0.0,0.0,0.0,0.0,0.0,0,0,100,30.22,29.83,0,0,0,0.00
2013-11-25,0.0,0.0,0.0,0.0,0.0,0.0,0,0,100,30.42,30.22,0,0,0,0.00
2013-11-26,0.0,0.0,0.0,0.0,0.0,0.0,0,0,100,30.37,30.05,0,0,0,0.00
2013-11-27,0.0,0.0,0.0,0.0,0.0,0.0,0,0,100,30.05,29.19,0,0,0,0.00
2013-11-28,0.0,0.0,0.0,0.0,0.0,0.0,0,0,100,30.48,29.52,0,0,0,0.00
2013-11-29,0.0,0.0,0.0,0.0,0.0,0.0,0,0,100,30.75,30.47,0,0,0,0.00
2013-11-30,0.0,0.0,0.0,0.0,0.0,0.0,0,0,100,30.79,30.47,0,0,0,0.00
2013-12-1,0.0,0.0,0.0,0.0,0.0,0.0,0,0,100,30.47,30.00,0,0,0,0.00
2013-12-2,41.4,13.3,0.0,39.5,12.7,0.0,95,32,92,30.01,29.93,7,1,7,0.00
2013-12-3,48.3,40.2,36.4,39.0,36.1,34.2,98,86,60,29.97,29.84,16,3,16,0.00
2013-12-4,46.9,39.2,34.1,39.2,34.5,30.7,97,84,56,30.23,29.97,15,2,15,0.00
2013-12-5,52.2,46.5,37.2,51.9,45.7,36.2,99,97,93,30.24,29.98,20,3,20,0.02
2013-12-6,53.4,47.9,37.8,53.4,47.5,36.7,100,99,95,30.13,29.92,22,4,22,0.47
2013-12-7,41.7,35.8,30.8,37.1,31.1,24.1,97,83,67,30.48,30.07,20,5,20,0.32
2013-12-8,31.7,30.0,26.7,25.0,20.3,17.1,79,67,55,30.62,30.48,13,4,13,0.00
2013-12-9,42.9,37.9,31.3,42.6,36.6,24.4,100,95,75,30.50,29.91,17,6,22,0.46
2013-12-10,36.9,33.5,28.0,35.9,32.1,21.8,98,94,76,30.06,29.81,21,3,21,0.09
2013-12-11,34.3,29.3,26.2,24.5,21.9,18.1,88,74,55,30.29,30.06,25,7,25,0.05
2013-12-12,29.8,24.3,20.8,20.5,11.9,3.6,78,60,38,30.30,30.13,21,5,21,0.00
2013-12-13,33.3,26.6,21.0,19.1,14.7,10.3,74,61,47,30.37,30.06,31,7,31,0.00
2013-12-14,32.1,22.0,15.2,31.6,16.0,1.7,98,78,53,30.61,30.13,25,7,25,0.00
2013-12-15,50.0,35.1,28.3,49.7,32.9,23.7,99,92,76,30.12,29.35,32,7,32,0.80
2013-12-16,31.4,28.2,23.1,25.3,16.4,10.9,83,62,44,30.25,29.80,27,6,27,0.00
2013-12-17,34.2,23.5,15.7,33.6,18.2,9.5,98,81,61,30.30,29.90,21,5,21,0.06
2013-12-18,35.4,28.5,20.2,25.5,22.9,18.8,95,80,58,30.15,29.82,23,7,23,0.03
2013-12-19,44.6,36.7,28.6,36.9,29.5,22.7,80,75,68,30.17,30.01,32,10,32,0.03
2013-12-20,48.7,42.4,37.5,45.3,39.1,31.4,97,88,77,30.17,30.00,24,5,24,0.00
2013-12-21,47.6,44.8,42.3,46.5,44.1,41.8,99,97,93,30.05,29.95,22,7,22,0.00
2013-12-22,54.5,47.6,41.9,54.5,47.4,41.6,100,99,98,30.03,29.86,28,8,28,0.01
2013-12-23,48.6,41.1,35.9,48.3,40.7,35.4,100,99,97,30.09,29.95,20,3,20,0.62
2013-12-24,39.2,34.1,29.3,38.9,27.1,20.2,99,76,60,30.23,30.03,21,6,21,0.06
2013-12-25,29.3,22.1,19.7,23.0,10.1,5.1,80,60,47,30.59,30.22,26,5,26,0.00
2013-12-26,39.2,33.0,22.3,38.2,29.9,17.0,97,88,79,30.53,30.08,17,4,17,0.20
2013-12-27,38.2,32.0,28.6,26.2,23.9,20.9,87,73,51,30.32,30.24,16,4,16,0.00
2013-12-28,45.1,39.0,31.2,38.2,33.6,24.8,95,81,69,30.29,30.05,36,10,36,0.00
2013-12-29,50.9,41.7,38.7,50.5,40.5,36.8,99,95,90,30.08,29.33,27,5,27,1.15
2013-12-30,43.2,35.6,24.2,39.4,28.6,15.3,97,77,49,30.17,29.50,24,6,24,0.00
2013-12-31,28.5,23.9,18.0,20.3,12.6,2.3,76,62,47,30.22,30.08,19,5,19,0.00
2014-1-1,31.2,26.4,22.6,17.2,12.2,9.1,69,55,43,30.43,30.22,25,5,25,0.00
2014-1-2,31.4,27.8,23.3,30.5,25.8,14.2,97,92,60,30.37,29.69,36,10,36,0.00